Orlando, Oklahoma
Current Conditions -  °F | °C
As of 4:22 PM on Sunday 23 Nov 2014 (Local Time) from KSWO Reporting Station
Overcast Overcast  
Wind Chill: 51°   Ceiling: 2300
Heat Index: 51°   Visibility: 10mi
Dew Point: 42°   Wind: 24mph
Humidity: 71%   Direction: 330°NNW
Pressure: 29.43"   Gusts: 35mph
Location:  36.15°N, 97.38°W
Report Text: KSWO 232222Z 33021G30KT 10SM BKN023 OVC065 11/06 A2943 RMK AO2 PK WND 33037/2207 T01060056
Loading
Personal Weather Stations






























Interactive Weather Map New forecast layout! Learn more

10-Day Weather Forecast

Advertisements
Track Severe Weather on mobile